createdAt,value
2023-01-31T00:00:41.999Z,0.00
2023-01-31T00:01:41.994Z,0.00
2023-01-31T00:02:42.024Z,0.00
2023-01-31T00:03:42.038Z,0.00
2023-01-31T00:04:41.951Z,0.00
2023-01-31T00:05:41.932Z,0.00
2023-01-31T00:06:41.938Z,0.00
2023-01-31T00:07:41.987Z,0.00
2023-01-31T00:08:41.906Z,0.00
2023-01-31T00:09:41.894Z,0.00
2023-01-31T00:10:41.881Z,0.00
2023-01-31T00:11:41.888Z,0.00
2023-01-31T00:12:41.881Z,0.00
2023-01-31T00:13:41.852Z,0.00
2023-01-31T00:14:41.831Z,0.00
2023-01-31T00:15:41.849Z,0.00
2023-01-31T00:16:41.835Z,0.00
2023-01-31T00:17:41.822Z,0.00
2023-01-31T00:18:41.818Z,0.00
2023-01-31T00:19:41.813Z,0.00
2023-01-31T00:20:41.797Z,0.00
2023-01-31T00:21:41.756Z,0.00
2023-01-31T00:22:41.753Z,0.00
2023-01-31T00:23:41.733Z,0.00
2023-01-31T00:24:41.737Z,0.00
2023-01-31T00:25:41.711Z,0.00
2023-01-31T00:26:41.724Z,0.00
2023-01-31T00:27:41.695Z,0.00
2023-01-31T00:28:41.710Z,0.00
2023-01-31T00:29:41.678Z,0.00
2023-01-31T00:30:41.663Z,0.00
2023-01-31T00:31:41.765Z,0.00
2023-01-31T00:32:41.661Z,0.00
2023-01-31T00:33:41.634Z,0.00
2023-01-31T00:34:41.652Z,0.00
2023-01-31T00:35:41.618Z,0.00
2023-01-31T00:36:41.597Z,0.00
2023-01-31T00:37:41.578Z,0.00
2023-01-31T00:38:41.570Z,0.00
2023-01-31T00:39:41.568Z,0.00
2023-01-31T00:40:41.587Z,0.00
2023-01-31T00:41:41.551Z,0.00
2023-01-31T00:42:41.528Z,0.00
2023-01-31T00:43:41.528Z,0.00
2023-01-31T00:44:41.505Z,0.00
2023-01-31T00:45:41.507Z,0.00
2023-01-31T00:46:41.563Z,0.00
2023-01-31T00:47:41.469Z,0.00
2023-01-31T00:48:41.482Z,0.00
2023-01-31T00:49:41.460Z,0.00
2023-01-31T00:50:41.446Z,0.00
2023-01-31T00:51:41.446Z,0.00
2023-01-31T00:52:41.452Z,0.00
2023-01-31T00:53:41.434Z,0.00
2023-01-31T00:54:41.403Z,0.00
2023-01-31T00:55:41.414Z,0.00
2023-01-31T00:56:41.437Z,0.00
2023-01-31T00:57:41.377Z,0.00
2023-01-31T00:58:41.354Z,0.00
2023-01-31T00:59:41.375Z,0.00
2023-01-31T01:00:41.401Z,0.00
2023-01-31T01:01:41.353Z,0.00
2023-01-31T01:02:41.335Z,0.00
2023-01-31T01:03:41.317Z,0.00
2023-01-31T01:04:41.318Z,0.00
2023-01-31T01:05:41.284Z,0.00
2023-01-31T01:06:41.292Z,0.00
2023-01-31T01:07:41.279Z,0.00
2023-01-31T01:08:41.259Z,0.00
2023-01-31T01:09:41.244Z,0.00
2023-01-31T01:10:41.237Z,0.00
2023-01-31T01:11:41.222Z,0.00
2023-01-31T01:12:41.288Z,0.00
2023-01-31T01:13:41.207Z,0.00
2023-01-31T01:14:41.200Z,0.00
2023-01-31T01:15:41.189Z,0.00
2023-01-31T01:16:41.244Z,0.00
2023-01-31T01:17:41.151Z,0.00
2023-01-31T01:18:41.171Z,0.00
2023-01-31T01:19:41.136Z,0.00
2023-01-31T01:20:41.138Z,0.00
2023-01-31T01:21:41.125Z,0.00
2023-01-31T01:22:41.111Z,0.00
2023-01-31T01:23:41.099Z,0.00
2023-01-31T01:24:41.096Z,0.00
2023-01-31T01:25:41.073Z,0.00
2023-01-31T01:26:41.297Z,0.00
2023-01-31T01:27:41.053Z,0.00
2023-01-31T01:28:41.040Z,0.00
2023-01-31T01:29:41.046Z,0.00
2023-01-31T01:30:41.016Z,0.00
2023-01-31T01:31:41.110Z,0.00
2023-01-31T01:32:41.044Z,0.00
2023-01-31T01:33:40.999Z,0.00
2023-01-31T01:34:40.976Z,0.00
2023-01-31T01:35:40.988Z,0.00
2023-01-31T01:36:40.984Z,0.00
2023-01-31T01:37:41.045Z,0.00
2023-01-31T01:38:40.960Z,0.00
2023-01-31T01:39:40.935Z,0.00
2023-01-31T01:40:40.911Z,0.00
2023-01-31T01:41:40.918Z,0.00
2023-01-31T01:42:40.889Z,0.00
2023-01-31T01:43:40.888Z,0.00
2023-01-31T01:44:40.882Z,0.00
2023-01-31T01:45:40.979Z,0.00
2023-01-31T01:46:40.859Z,0.00
2023-01-31T01:47:40.858Z,0.00
2023-01-31T01:48:40.846Z,0.00
2023-01-31T01:49:40.823Z,0.00
2023-01-31T01:50:40.831Z,0.00
2023-01-31T01:51:40.802Z,0.00
2023-01-31T01:52:40.822Z,0.00
2023-01-31T01:53:40.784Z,0.00
2023-01-31T01:54:40.787Z,0.00
2023-01-31T01:55:40.761Z,0.00
2023-01-31T01:56:40.743Z,0.00
2023-01-31T01:57:40.741Z,0.00
2023-01-31T01:58:40.723Z,0.00
2023-01-31T01:59:40.714Z,0.00
2023-01-31T02:00:40.834Z,0.00
2023-01-31T02:01:40.717Z,0.00
2023-01-31T02:02:40.750Z,0.00
2023-01-31T02:03:40.678Z,0.00
2023-01-31T02:04:40.678Z,0.00
2023-01-31T02:05:40.656Z,0.00
2023-01-31T02:06:40.632Z,0.00
2023-01-31T02:07:41.866Z,0.00
2023-01-31T02:08:40.640Z,0.00
2023-01-31T02:09:40.630Z,0.00
2023-01-31T02:10:40.596Z,0.00
2023-01-31T02:11:40.600Z,0.00
2023-01-31T02:12:40.577Z,0.00
2023-01-31T02:13:40.558Z,0.00
2023-01-31T02:14:40.560Z,0.00
2023-01-31T02:15:40.566Z,0.00
2023-01-31T02:16:40.575Z,0.00
2023-01-31T02:17:40.521Z,0.00
2023-01-31T02:18:40.515Z,0.00
2023-01-31T02:19:40.515Z,0.00
2023-01-31T02:20:40.496Z,0.00
2023-01-31T02:21:40.478Z,0.00
2023-01-31T02:22:40.464Z,0.00
2023-01-31T02:23:40.484Z,0.00
2023-01-31T02:24:40.468Z,0.00
2023-01-31T02:25:40.432Z,0.00
2023-01-31T02:26:40.464Z,0.00
2023-01-31T02:27:40.410Z,0.00
2023-01-31T02:28:40.408Z,0.00
2023-01-31T02:29:40.416Z,0.00
2023-01-31T02:30:40.408Z,0.00
2023-01-31T02:31:40.431Z,0.00
2023-01-31T02:32:40.371Z,0.00
2023-01-31T02:33:40.350Z,0.00
2023-01-31T02:34:40.349Z,0.00
2023-01-31T02:35:40.371Z,0.00
2023-01-31T02:36:40.317Z,0.00
2023-01-31T02:37:40.324Z,0.00
2023-01-31T02:38:40.304Z,0.00
2023-01-31T02:39:40.291Z,0.00
2023-01-31T02:40:40.303Z,0.00
2023-01-31T02:41:40.269Z,0.00
2023-01-31T02:42:40.264Z,0.00
2023-01-31T02:43:40.249Z,0.00
2023-01-31T02:44:40.254Z,0.00
2023-01-31T02:45:40.303Z,0.00
2023-01-31T02:46:40.215Z,0.00
2023-01-31T02:47:40.197Z,0.00
2023-01-31T02:48:40.202Z,0.00
2023-01-31T02:49:40.181Z,0.00
2023-01-31T02:50:40.183Z,0.00
2023-01-31T02:51:40.165Z,0.00
2023-01-31T02:52:40.151Z,0.00
2023-01-31T02:53:40.142Z,0.00
2023-01-31T02:54:40.134Z,0.00
2023-01-31T02:55:40.128Z,0.00
2023-01-31T02:56:40.118Z,0.00
2023-01-31T02:57:40.096Z,0.00
2023-01-31T02:58:40.090Z,0.00
2023-01-31T02:59:40.074Z,0.00
2023-01-31T03:00:40.094Z,0.00
2023-01-31T03:01:40.153Z,0.00
2023-01-31T03:02:40.139Z,0.00
2023-01-31T03:03:40.038Z,0.00
2023-01-31T03:04:40.044Z,0.00
2023-01-31T03:05:40.008Z,0.00
2023-01-31T03:06:40.035Z,0.00
2023-01-31T03:07:40.017Z,0.00
2023-01-31T03:08:39.976Z,0.00
2023-01-31T03:09:40.006Z,0.00
2023-01-31T03:10:39.964Z,0.00
2023-01-31T03:11:39.965Z,0.00
2023-01-31T03:12:39.969Z,0.00
2023-01-31T03:13:39.974Z,0.00
2023-01-31T03:14:39.978Z,0.00
2023-01-31T03:15:39.934Z,0.00
2023-01-31T03:16:39.992Z,0.00
2023-01-31T03:17:39.888Z,0.00
2023-01-31T03:18:39.888Z,0.00
2023-01-31T03:19:39.859Z,0.00
2023-01-31T03:20:39.859Z,0.00
2023-01-31T03:21:39.870Z,0.00
2023-01-31T03:22:39.890Z,0.00
2023-01-31T03:23:39.875Z,0.00
2023-01-31T03:24:39.821Z,0.00
2023-01-31T03:25:39.820Z,0.00
2023-01-31T03:26:39.877Z,0.00
2023-01-31T03:27:39.812Z,0.00
2023-01-31T03:28:39.799Z,0.00
2023-01-31T03:29:39.753Z,0.00
2023-01-31T03:30:39.926Z,0.00
2023-01-31T03:31:39.943Z,0.00
2023-01-31T03:32:39.802Z,0.00
2023-01-31T03:33:39.783Z,0.00
2023-01-31T03:34:39.709Z,0.00
2023-01-31T03:35:39.687Z,0.00
2023-01-31T03:36:39.682Z,0.00
2023-01-31T03:37:39.686Z,0.00
2023-01-31T03:38:39.666Z,0.00
2023-01-31T03:39:39.717Z,0.00
2023-01-31T03:40:39.642Z,0.00
2023-01-31T03:41:40.176Z,0.00
2023-01-31T03:42:39.624Z,0.00
2023-01-31T03:43:39.632Z,0.00
2023-01-31T03:44:39.663Z,0.00
2023-01-31T03:45:39.583Z,0.00
2023-01-31T03:46:39.638Z,0.00
2023-01-31T03:47:39.576Z,0.00
2023-01-31T03:48:39.599Z,0.00
2023-01-31T03:49:39.572Z,0.00
2023-01-31T03:50:39.530Z,0.00
2023-01-31T03:51:39.574Z,0.00
2023-01-31T03:52:39.504Z,0.00
2023-01-31T03:53:39.520Z,0.00
2023-01-31T03:54:39.510Z,0.00
2023-01-31T03:55:39.483Z,0.00
2023-01-31T03:56:39.467Z,0.00
2023-01-31T03:57:39.451Z,0.00
2023-01-31T03:58:39.461Z,0.00
2023-01-31T03:59:39.507Z,0.00
2023-01-31T04:00:39.458Z,0.00
2023-01-31T04:01:39.490Z,0.00
2023-01-31T04:02:39.464Z,0.00
2023-01-31T04:03:39.400Z,0.00
2023-01-31T04:04:39.389Z,0.00
2023-01-31T04:05:39.373Z,0.00
2023-01-31T04:06:39.355Z,0.00
2023-01-31T04:07:39.403Z,0.00
2023-01-31T04:08:39.345Z,0.00
2023-01-31T04:09:39.337Z,0.00
2023-01-31T04:10:39.315Z,0.00
2023-01-31T04:11:39.305Z,0.00
2023-01-31T04:12:39.298Z,0.00
2023-01-31T04:13:39.303Z,0.00
2023-01-31T04:14:39.282Z,0.00
2023-01-31T04:15:39.381Z,0.00
2023-01-31T04:16:39.272Z,0.00
2023-01-31T04:17:39.266Z,0.00
2023-01-31T04:18:39.235Z,0.00
2023-01-31T04:19:39.236Z,0.00
2023-01-31T04:20:39.229Z,0.00
2023-01-31T04:21:39.197Z,0.00
2023-01-31T04:22:39.196Z,0.00
2023-01-31T04:23:39.201Z,0.00
2023-01-31T04:24:39.167Z,0.00
2023-01-31T04:25:39.182Z,0.00
2023-01-31T04:26:39.219Z,0.00
2023-01-31T04:27:39.153Z,0.00
2023-01-31T04:28:39.128Z,0.00
2023-01-31T04:29:39.125Z,0.00
2023-01-31T04:30:39.112Z,0.00
2023-01-31T04:31:39.146Z,0.00
2023-01-31T04:32:39.104Z,0.00
2023-01-31T04:33:39.069Z,0.00
2023-01-31T04:34:39.082Z,0.00
2023-01-31T04:35:39.054Z,0.00
2023-01-31T04:36:39.037Z,0.00
2023-01-31T04:37:39.026Z,0.00
2023-01-31T04:38:39.016Z,0.00
2023-01-31T04:39:39.016Z,0.00
2023-01-31T04:40:39.014Z,0.00
2023-01-31T04:41:38.984Z,0.00
2023-01-31T04:42:38.981Z,0.00
2023-01-31T04:43:38.969Z,0.00
2023-01-31T04:44:38.965Z,0.00
2023-01-31T04:45:38.961Z,0.00
2023-01-31T04:46:38.992Z,0.00
2023-01-31T04:47:38.982Z,0.00
2023-01-31T04:48:38.944Z,0.00
2023-01-31T04:49:38.905Z,0.00
2023-01-31T04:50:38.905Z,0.00
2023-01-31T04:51:38.875Z,0.00
2023-01-31T04:52:38.876Z,0.00
2023-01-31T04:53:38.883Z,0.00
2023-01-31T04:54:38.862Z,0.00
2023-01-31T04:55:38.858Z,0.00
2023-01-31T04:56:38.843Z,0.00
2023-01-31T04:57:38.814Z,0.00
2023-01-31T04:58:38.871Z,0.00
2023-01-31T04:59:38.820Z,0.00
2023-01-31T05:00:38.853Z,0.00
2023-01-31T05:01:38.823Z,0.00
2023-01-31T05:02:38.806Z,0.00
2023-01-31T05:03:38.755Z,0.00
2023-01-31T05:04:38.767Z,0.00
2023-01-31T05:05:38.774Z,0.00
2023-01-31T05:06:38.717Z,0.00
2023-01-31T05:07:38.717Z,0.00
2023-01-31T05:08:38.699Z,0.00
2023-01-31T05:09:38.685Z,0.00
2023-01-31T05:10:38.681Z,0.00
2023-01-31T05:11:38.662Z,0.00
2023-01-31T05:12:38.682Z,0.00
2023-01-31T05:13:38.652Z,0.00
2023-01-31T05:14:38.634Z,0.00
2023-01-31T05:15:38.627Z,0.00
2023-01-31T05:16:38.641Z,0.00
2023-01-31T05:17:38.607Z,0.00
2023-01-31T05:18:38.597Z,0.00
2023-01-31T05:19:38.588Z,0.00
2023-01-31T05:20:38.613Z,0.00
2023-01-31T05:21:38.578Z,0.00
2023-01-31T05:22:38.553Z,0.00
2023-01-31T05:23:38.548Z,0.00
2023-01-31T05:24:38.537Z,0.00
2023-01-31T05:25:38.526Z,0.00
2023-01-31T05:26:38.640Z,0.00
2023-01-31T05:27:38.498Z,0.00
2023-01-31T05:28:38.496Z,0.00
2023-01-31T05:29:38.474Z,0.00
2023-01-31T05:30:38.479Z,0.00
2023-01-31T05:31:38.478Z,0.00
2023-01-31T05:32:38.460Z,0.00
2023-01-31T05:33:38.437Z,0.00
2023-01-31T05:34:38.425Z,0.00
2023-01-31T05:35:38.409Z,0.00
2023-01-31T05:36:38.437Z,0.00
2023-01-31T05:37:38.399Z,0.00
2023-01-31T05:38:38.370Z,0.00
2023-01-31T05:39:38.394Z,0.00
2023-01-31T05:40:38.367Z,0.00
2023-01-31T05:41:38.365Z,0.00
2023-01-31T05:42:38.343Z,0.00
2023-01-31T05:43:38.349Z,0.00
2023-01-31T05:44:38.320Z,0.00
2023-01-31T05:45:38.322Z,0.00
2023-01-31T05:46:38.297Z,0.00
2023-01-31T05:47:38.289Z,0.00
2023-01-31T05:48:38.278Z,0.00
2023-01-31T05:49:38.272Z,0.00
2023-01-31T05:50:38.254Z,0.00
2023-01-31T05:51:38.235Z,0.00
2023-01-31T05:52:38.255Z,0.00
2023-01-31T05:53:38.390Z,0.00
2023-01-31T05:54:38.274Z,0.00
2023-01-31T05:55:38.206Z,0.00
2023-01-31T05:56:38.184Z,0.00
2023-01-31T05:57:38.176Z,0.00
2023-01-31T05:58:38.265Z,0.00
2023-01-31T05:59:38.185Z,0.00
2023-01-31T06:00:38.151Z,0.00
2023-01-31T06:01:38.141Z,0.00
2023-01-31T06:02:38.133Z,0.00
2023-01-31T06:03:38.157Z,0.00
2023-01-31T06:04:38.108Z,0.00
2023-01-31T06:05:44.696Z,0.00
2023-01-31T06:06:38.278Z,0.00
2023-01-31T06:07:38.075Z,0.00
2023-01-31T06:08:38.081Z,0.00
2023-01-31T06:09:38.055Z,0.00
2023-01-31T06:10:38.030Z,0.00
2023-01-31T06:11:38.031Z,0.00
2023-01-31T06:12:38.024Z,0.00
2023-01-31T06:13:38.010Z,0.00
2023-01-31T06:14:38.008Z,0.00
2023-01-31T06:16:00.809Z,0.00
2023-01-31T06:16:37.994Z,0.00
2023-01-31T06:17:37.967Z,0.00
2023-01-31T06:18:37.959Z,0.00
2023-01-31T06:19:37.950Z,0.00
2023-01-31T06:20:37.963Z,0.00
2023-01-31T06:21:37.921Z,0.00
2023-01-31T06:22:37.936Z,0.00
2023-01-31T06:23:37.907Z,0.00
2023-01-31T06:24:37.905Z,0.00
2023-01-31T06:25:37.882Z,0.00
2023-01-31T06:26:37.947Z,0.00
2023-01-31T06:27:37.881Z,0.00
2023-01-31T06:28:37.841Z,0.00
2023-01-31T06:29:37.838Z,0.00
2023-01-31T06:30:38.012Z,0.00
2023-01-31T06:31:37.901Z,0.00
2023-01-31T06:32:37.797Z,0.00
2023-01-31T06:33:45.906Z,0.00
2023-01-31T06:34:38.775Z,0.00
2023-01-31T06:35:37.767Z,0.00
2023-01-31T06:36:37.776Z,0.00
2023-01-31T06:37:37.759Z,0.00
2023-01-31T06:38:37.734Z,0.00
2023-01-31T06:39:37.740Z,0.00
2023-01-31T06:40:37.742Z,0.00
2023-01-31T06:41:37.715Z,0.00
2023-01-31T06:42:37.701Z,0.00
2023-01-31T06:43:37.692Z,0.00
2023-01-31T06:44:37.685Z,0.00
2023-01-31T06:45:37.657Z,0.00
2023-01-31T06:46:37.677Z,0.00
2023-01-31T06:47:37.640Z,0.00
2023-01-31T06:48:37.641Z,0.00
2023-01-31T06:49:37.671Z,0.00
2023-01-31T06:50:37.614Z,0.00
2023-01-31T06:51:37.614Z,0.00
2023-01-31T06:52:37.597Z,0.00
2023-01-31T06:53:37.581Z,0.00
2023-01-31T06:54:37.574Z,0.00
2023-01-31T06:55:37.557Z,0.00
2023-01-31T06:56:37.565Z,0.00
2023-01-31T06:57:37.592Z,0.00
2023-01-31T06:58:37.532Z,0.00
2023-01-31T06:59:37.532Z,0.00
2023-01-31T07:00:37.507Z,0.00
2023-01-31T07:01:37.738Z,0.00
2023-01-31T07:02:37.486Z,0.00
2023-01-31T07:03:37.478Z,0.00
2023-01-31T07:04:37.510Z,0.00
2023-01-31T07:05:37.444Z,0.00
2023-01-31T07:06:37.437Z,0.00
2023-01-31T07:07:37.435Z,5.62
2023-01-31T07:08:37.425Z,5.62
2023-01-31T07:09:37.420Z,5.62
2023-01-31T07:10:37.390Z,5.62
2023-01-31T07:11:37.387Z,5.62
2023-01-31T07:12:37.405Z,5.62
2023-01-31T07:13:37.358Z,5.62
2023-01-31T07:14:37.388Z,5.62
2023-01-31T07:15:37.353Z,5.62
2023-01-31T07:16:37.329Z,5.62
2023-01-31T07:17:37.315Z,11.25
2023-01-31T07:18:37.327Z,11.25
2023-01-31T07:19:37.747Z,11.25
2023-01-31T07:20:37.290Z,16.88
2023-01-31T07:21:37.280Z,16.88
2023-01-31T07:22:37.267Z,16.88
2023-01-31T07:23:37.264Z,22.50
2023-01-31T07:24:37.275Z,22.50
2023-01-31T07:25:37.251Z,16.88
2023-01-31T07:26:37.284Z,16.88
2023-01-31T07:27:37.219Z,22.50
2023-01-31T07:28:37.230Z,16.88
2023-01-31T07:29:38.430Z,11.25
2023-01-31T07:30:37.223Z,11.25
2023-01-31T07:31:37.249Z,11.25
2023-01-31T07:32:37.166Z,16.88
2023-01-31T07:33:37.158Z,11.25
2023-01-31T07:34:37.151Z,16.88
2023-01-31T07:35:37.150Z,11.25
2023-01-31T07:36:37.119Z,11.25
2023-01-31T07:37:37.105Z,11.25
2023-01-31T07:38:37.104Z,5.62
2023-01-31T07:39:37.091Z,11.25
2023-01-31T07:40:37.100Z,5.62
2023-01-31T07:41:37.077Z,11.25
2023-01-31T07:42:37.060Z,11.25
2023-01-31T07:43:37.061Z,11.25
2023-01-31T07:44:37.061Z,11.25
2023-01-31T07:45:38.607Z,11.25
2023-01-31T07:46:37.017Z,11.25
2023-01-31T07:47:37.007Z,11.25
2023-01-31T07:48:36.989Z,5.62
2023-01-31T07:49:36.992Z,11.25
2023-01-31T07:50:36.966Z,16.88
2023-01-31T07:51:36.983Z,16.88
2023-01-31T07:52:36.958Z,16.88
2023-01-31T07:53:37.662Z,22.50
2023-01-31T07:54:36.939Z,22.50
2023-01-31T07:55:36.932Z,22.50
2023-01-31T07:56:36.925Z,16.88
2023-01-31T07:57:36.911Z,22.50
2023-01-31T07:58:36.913Z,22.50
2023-01-31T07:59:36.895Z,22.50
2023-01-31T08:00:36.876Z,16.88
2023-01-31T08:01:36.917Z,16.88
2023-01-31T08:02:36.870Z,16.88
2023-01-31T08:03:36.829Z,16.88
2023-01-31T08:04:36.871Z,22.50
2023-01-31T08:05:36.813Z,28.12
2023-01-31T08:06:36.822Z,22.50
2023-01-31T08:07:36.788Z,16.88
2023-01-31T08:08:36.773Z,16.88
2023-01-31T08:09:36.785Z,22.50
2023-01-31T08:10:36.757Z,22.50
2023-01-31T08:11:36.752Z,22.50
2023-01-31T08:12:36.741Z,33.75
2023-01-31T08:13:36.731Z,33.75
2023-01-31T08:14:36.735Z,39.38
2023-01-31T08:15:36.712Z,33.75
2023-01-31T08:16:36.715Z,39.38
2023-01-31T08:17:36.718Z,56.25
2023-01-31T08:18:36.677Z,56.25
2023-01-31T08:19:36.673Z,45.00
2023-01-31T08:20:36.682Z,56.25
2023-01-31T08:21:36.643Z,56.25
2023-01-31T08:22:36.651Z,45.00
2023-01-31T08:23:36.632Z,39.38
2023-01-31T08:24:36.613Z,33.75
2023-01-31T08:25:36.592Z,33.75
2023-01-31T08:26:36.679Z,39.38
2023-01-31T08:27:36.605Z,28.12
2023-01-31T08:28:36.571Z,33.75
2023-01-31T08:29:36.563Z,33.75
2023-01-31T08:30:36.585Z,28.12
2023-01-31T08:31:36.640Z,28.12
2023-01-31T08:32:36.545Z,33.75
2023-01-31T08:33:36.519Z,22.50
2023-01-31T08:34:36.513Z,28.12
2023-01-31T08:35:36.501Z,28.12
2023-01-31T08:36:36.519Z,28.12
2023-01-31T08:37:36.495Z,16.88
2023-01-31T08:38:36.494Z,16.88
2023-01-31T08:39:36.480Z,22.50
2023-01-31T08:40:36.487Z,22.50
2023-01-31T08:41:36.434Z,28.12
2023-01-31T08:42:36.443Z,22.50
2023-01-31T08:43:53.816Z,22.50
2023-01-31T08:44:37.395Z,22.50
2023-01-31T08:45:36.392Z,28.12
2023-01-31T08:46:36.507Z,33.75
2023-01-31T08:47:36.365Z,39.38
2023-01-31T08:48:36.384Z,39.38
2023-01-31T08:49:36.383Z,39.38
2023-01-31T08:50:36.347Z,39.38
2023-01-31T08:51:36.335Z,33.75
2023-01-31T08:52:36.314Z,33.75
2023-01-31T08:53:36.311Z,22.50
2023-01-31T08:54:36.314Z,28.12
2023-01-31T08:55:36.289Z,33.75
2023-01-31T08:56:36.297Z,39.38
2023-01-31T08:57:43.161Z,33.75
2023-01-31T08:58:37.248Z,28.12
2023-01-31T08:59:36.269Z,33.75
2023-01-31T09:00:36.240Z,39.38
2023-01-31T09:01:36.247Z,45.00
2023-01-31T09:02:36.245Z,45.00
2023-01-31T09:03:36.199Z,45.00
2023-01-31T09:04:36.220Z,45.00
2023-01-31T09:05:36.183Z,45.00
2023-01-31T09:06:36.184Z,45.00
2023-01-31T09:07:36.154Z,50.62
2023-01-31T09:08:36.162Z,45.00
2023-01-31T09:09:36.168Z,45.00
2023-01-31T09:10:36.153Z,33.75
2023-01-31T09:11:36.161Z,33.75
2023-01-31T09:12:36.105Z,28.12
2023-01-31T09:13:36.137Z,22.50
2023-01-31T09:14:36.098Z,28.12
2023-01-31T09:15:36.072Z,28.12
2023-01-31T09:16:36.088Z,28.12
2023-01-31T09:17:36.055Z,28.12
2023-01-31T09:18:36.051Z,28.12
2023-01-31T09:19:36.054Z,33.75
2023-01-31T09:20:36.043Z,33.75
2023-01-31T09:21:36.012Z,39.38
2023-01-31T09:22:35.994Z,45.00
2023-01-31T09:23:35.996Z,45.00
2023-01-31T09:24:35.989Z,45.00
2023-01-31T09:25:45.739Z,39.38
2023-01-31T09:26:36.977Z,45.00
2023-01-31T09:27:35.952Z,45.00
2023-01-31T09:28:35.959Z,33.75
2023-01-31T09:29:35.931Z,39.38
2023-01-31T09:30:35.960Z,45.00
2023-01-31T09:31:35.961Z,50.62
2023-01-31T09:32:35.907Z,56.25
2023-01-31T09:33:35.894Z,56.25
2023-01-31T09:34:35.877Z,61.88
2023-01-31T09:35:35.860Z,61.88
2023-01-31T09:36:35.868Z,61.88
2023-01-31T09:37:35.848Z,56.25
2023-01-31T09:38:35.849Z,56.25
2023-01-31T09:39:35.823Z,61.88
2023-01-31T09:40:36.481Z,61.88
2023-01-31T09:41:36.362Z,61.88
2023-01-31T09:42:36.061Z,61.88
2023-01-31T09:43:36.122Z,50.62
2023-01-31T09:44:36.080Z,56.25
2023-01-31T09:45:35.950Z,56.25
2023-01-31T09:46:35.766Z,61.88
2023-01-31T09:47:35.737Z,67.50
2023-01-31T09:48:35.731Z,73.12
2023-01-31T09:49:35.713Z,73.12
2023-01-31T09:50:35.706Z,73.12
2023-01-31T09:51:35.718Z,73.12
2023-01-31T09:52:35.698Z,78.75
2023-01-31T09:53:36.394Z,78.75
2023-01-31T09:54:36.391Z,84.38
2023-01-31T09:55:36.108Z,90.00
2023-01-31T09:56:35.650Z,90.00
2023-01-31T09:57:35.965Z,78.75
2023-01-31T09:58:35.616Z,73.12
2023-01-31T09:59:35.640Z,73.12
2023-01-31T10:00:35.586Z,73.12
2023-01-31T10:01:36.182Z,67.50
2023-01-31T10:02:35.575Z,67.50
2023-01-31T10:03:35.595Z,67.50
2023-01-31T10:04:35.546Z,61.88
2023-01-31T10:05:35.556Z,73.12
2023-01-31T10:06:35.543Z,73.12
2023-01-31T10:07:36.069Z,73.12
2023-01-31T10:08:36.095Z,78.75
2023-01-31T10:09:35.985Z,73.12
2023-01-31T10:10:35.502Z,78.75
2023-01-31T10:11:36.631Z,78.75
2023-01-31T10:12:35.467Z,73.12
2023-01-31T10:13:35.486Z,78.75
2023-01-31T10:14:35.445Z,73.12
2023-01-31T10:15:35.444Z,73.12
2023-01-31T10:16:35.416Z,73.12
2023-01-31T10:17:35.436Z,78.75
2023-01-31T10:18:35.397Z,78.75
2023-01-31T10:19:35.395Z,84.38
2023-01-31T10:20:35.384Z,78.75
2023-01-31T10:21:35.380Z,78.75
2023-01-31T10:22:35.348Z,73.12
2023-01-31T10:23:35.350Z,67.50
2023-01-31T10:24:35.355Z,67.50
2023-01-31T10:25:35.332Z,61.88
2023-01-31T10:26:35.324Z,73.12
2023-01-31T10:27:35.316Z,73.12
2023-01-31T10:28:35.304Z,67.50
2023-01-31T10:29:35.277Z,50.62
2023-01-31T10:30:35.285Z,50.62
2023-01-31T10:31:35.316Z,50.62
2023-01-31T10:32:35.269Z,45.00
2023-01-31T10:33:35.237Z,45.00
2023-01-31T10:34:35.227Z,45.00
2023-01-31T10:35:35.224Z,50.62
2023-01-31T10:36:35.213Z,50.62
2023-01-31T10:37:35.192Z,45.00
2023-01-31T10:38:35.195Z,45.00
2023-01-31T10:39:35.197Z,50.62
2023-01-31T10:40:35.184Z,56.25
2023-01-31T10:41:35.142Z,67.50
2023-01-31T10:42:35.156Z,78.75
2023-01-31T10:43:35.124Z,78.75
2023-01-31T10:44:35.131Z,84.38
2023-01-31T10:45:35.182Z,78.75
2023-01-31T10:46:35.092Z,84.38
2023-01-31T10:47:35.081Z,90.00
2023-01-31T10:48:35.065Z,101.25
2023-01-31T10:49:35.083Z,112.50
2023-01-31T10:50:35.056Z,112.50
2023-01-31T10:51:35.045Z,101.25
2023-01-31T10:52:35.032Z,84.38
2023-01-31T10:53:35.012Z,78.75
2023-01-31T10:54:35.013Z,78.75
2023-01-31T10:55:35.029Z,78.75
2023-01-31T10:56:35.710Z,78.75
2023-01-31T10:57:35.441Z,84.38
2023-01-31T10:58:35.351Z,84.38
2023-01-31T10:59:34.956Z,78.75
2023-01-31T11:00:34.945Z,73.12
2023-01-31T11:01:34.954Z,73.12
2023-01-31T11:02:35.106Z,67.50
2023-01-31T11:03:34.917Z,61.88
2023-01-31T11:04:34.901Z,61.88
2023-01-31T11:05:34.881Z,67.50
2023-01-31T11:06:34.884Z,73.12
2023-01-31T11:07:34.890Z,73.12
2023-01-31T11:08:34.859Z,78.75
2023-01-31T11:09:34.865Z,101.25
2023-01-31T11:10:34.864Z,78.75
2023-01-31T11:11:34.838Z,78.75
2023-01-31T11:12:34.868Z,84.38
2023-01-31T11:13:34.810Z,78.75
2023-01-31T11:14:34.794Z,56.25
2023-01-31T11:15:34.796Z,56.25
2023-01-31T11:16:34.866Z,56.25
2023-01-31T11:17:34.791Z,39.38
2023-01-31T11:18:34.763Z,39.38
2023-01-31T11:19:34.739Z,33.75
2023-01-31T11:20:34.751Z,33.75
2023-01-31T11:21:34.731Z,33.75
2023-01-31T11:22:34.699Z,33.75
2023-01-31T11:23:34.693Z,39.38
2023-01-31T11:24:34.698Z,45.00
2023-01-31T11:25:34.683Z,45.00
2023-01-31T11:26:34.756Z,50.62
2023-01-31T11:27:34.657Z,33.75
2023-01-31T11:28:34.675Z,45.00
2023-01-31T11:29:34.650Z,45.00
2023-01-31T11:30:34.695Z,56.25
2023-01-31T11:31:34.648Z,61.88
2023-01-31T11:32:34.602Z,56.25
2023-01-31T11:33:34.595Z,61.88
2023-01-31T11:34:34.605Z,56.25
2023-01-31T11:35:34.560Z,56.25
2023-01-31T11:36:34.564Z,50.62
2023-01-31T11:37:34.990Z,61.88
2023-01-31T11:38:34.536Z,61.88
2023-01-31T11:39:34.552Z,56.25
2023-01-31T11:40:34.512Z,56.25
2023-01-31T11:41:34.496Z,67.50
2023-01-31T11:42:34.501Z,56.25
2023-01-31T11:43:34.486Z,67.50
2023-01-31T11:44:34.485Z,61.88
2023-01-31T11:45:34.472Z,61.88
2023-01-31T11:46:34.497Z,39.38
2023-01-31T11:47:34.466Z,39.38
2023-01-31T11:48:34.428Z,33.75
2023-01-31T11:49:34.436Z,28.12
2023-01-31T11:50:34.409Z,28.12
2023-01-31T11:51:34.408Z,45.00
2023-01-31T11:52:34.375Z,39.38
2023-01-31T11:53:34.366Z,22.50
2023-01-31T11:54:34.372Z,28.12
2023-01-31T11:55:34.364Z,28.12
2023-01-31T11:56:34.346Z,28.12
2023-01-31T11:57:34.328Z,33.75
2023-01-31T11:58:34.341Z,28.12
2023-01-31T11:59:34.309Z,33.75
2023-01-31T12:00:34.323Z,22.50
2023-01-31T12:01:34.279Z,22.50
2023-01-31T12:02:34.406Z,16.88
2023-01-31T12:03:34.388Z,16.88
2023-01-31T12:04:34.275Z,22.50
2023-01-31T12:05:34.274Z,33.75
2023-01-31T12:06:34.280Z,28.12
2023-01-31T12:07:34.233Z,28.12
2023-01-31T12:08:34.221Z,22.50
2023-01-31T12:09:34.219Z,22.50
2023-01-31T12:10:34.249Z,22.50
2023-01-31T12:11:34.172Z,22.50
2023-01-31T12:12:34.173Z,28.12
2023-01-31T12:13:34.165Z,39.38
2023-01-31T12:14:34.152Z,39.38
2023-01-31T12:15:34.291Z,39.38
2023-01-31T12:16:34.243Z,28.12
2023-01-31T12:17:34.115Z,28.12
2023-01-31T12:18:34.124Z,33.75
2023-01-31T12:19:34.102Z,28.12
2023-01-31T12:20:34.094Z,28.12
2023-01-31T12:21:34.080Z,33.75
2023-01-31T12:22:34.078Z,33.75
2023-01-31T12:23:34.050Z,33.75
2023-01-31T12:24:34.035Z,33.75
2023-01-31T12:25:34.053Z,33.75
2023-01-31T12:26:34.040Z,39.38
2023-01-31T12:27:33.998Z,33.75
2023-01-31T12:28:34.002Z,33.75
2023-01-31T12:29:33.991Z,28.12
2023-01-31T12:30:34.001Z,33.75
2023-01-31T12:31:34.043Z,33.75
2023-01-31T12:32:33.966Z,33.75
2023-01-31T12:33:34.011Z,33.75
2023-01-31T12:34:33.934Z,33.75
2023-01-31T12:35:33.926Z,39.38
2023-01-31T12:36:33.928Z,50.62
2023-01-31T12:37:33.906Z,45.00
2023-01-31T12:38:33.895Z,56.25
2023-01-31T12:39:33.872Z,61.88
2023-01-31T12:40:33.880Z,61.88
2023-01-31T12:41:33.875Z,73.12
2023-01-31T12:42:33.839Z,56.25
2023-01-31T12:43:33.837Z,56.25
2023-01-31T12:44:33.828Z,39.38
2023-01-31T12:45:33.827Z,39.38
2023-01-31T12:46:33.857Z,45.00
2023-01-31T12:47:33.789Z,39.38
2023-01-31T12:48:33.803Z,45.00
2023-01-31T12:49:33.768Z,45.00
2023-01-31T12:50:33.775Z,45.00
2023-01-31T12:51:33.743Z,28.12
2023-01-31T12:52:33.771Z,28.12
2023-01-31T12:53:33.764Z,33.75
2023-01-31T12:54:33.733Z,45.00
2023-01-31T12:55:33.720Z,28.12
2023-01-31T12:56:33.714Z,33.75
2023-01-31T12:57:33.684Z,28.12
2023-01-31T12:58:33.684Z,28.12
2023-01-31T12:59:33.664Z,16.88
2023-01-31T13:00:33.685Z,16.88
2023-01-31T13:01:33.717Z,11.25
2023-01-31T13:02:33.754Z,16.88
2023-01-31T13:03:33.640Z,11.25
2023-01-31T13:04:33.635Z,11.25
2023-01-31T13:05:33.616Z,11.25
2023-01-31T13:06:33.605Z,11.25